Terminal Aerodrome Forecast
Issued by NWS

Home | Current Version | Previous Version | Text Only | Print | Product List | Glossary On
Versions: 1 2 3 4 5 6 7 8 9 10 11 12 13 14 15 16 17
000
FTUS45 KMSO 220522
TAFSMN
TAF
KSMN 220522Z 2206/2306 VRB05KT P6SM VCSH BKN060 BKN100
     FM220900 20006KT P6SM -SHRA BKN050 OVC100
     FM221200 19004KT P6SM BKN100
     FM221800 29006KT P6SM VCSH BKN050 OVC100
      AMD LTD TO CLD VIS AND WIND=

USA.gov is the U.S. government's official web portal to all federal, state and local government web resources and services.